Time;durP1;ratioP1;P1;durP2;ratioP2;P2;SDS_P1;SDS_P2;PMS_P1;PMS_P2;Temp;Humidity;BMP_temperature;BMP_pressure;BME280_temperature;BME280_humidity;BME280_pressure;Samples;Min_cycle;Max_cycle;Signal;HPM_P1;HPM_P2
2022/01/25 00:25:02;;;;;;;62.53;38.10;;;;;;;;;;5038599;28;93390;-72
2022/01/25 00:27:40;;;;;;;58.65;37.72;;;;;;;;;;5037952;28;93792;-72
2022/01/25 00:30:23;;;;;;;60.78;38.60;;;;;;;;;;5038621;28;92390;-72
2022/01/25 00:32:50;;;;;;;66.20;39.92;;;;;;;;;;5041942;28;93526;-72
2022/01/25 00:35:16;;;;;;;64.60;40.45;;;;;;;;;;5038278;28;92081;-71
2022/01/25 00:37:42;;;;;;;65.78;38.78;;;;;;;;;;5037767;28;93488;-72
2022/01/25 00:40:09;;;;;;;60.28;37.70;;;;;;;;;;5036678;28;95911;-71
2022/01/25 00:42:35;;;;;;;61.78;39.35;;;;;;;;;;5038168;28;92344;-71
2022/01/25 00:45:02;;;;;;;65.03;40.75;;;;;;;;;;5038235;28;93859;-71
2022/01/25 00:47:28;;;;;;;63.33;39.70;;;;;;;;;;5038034;28;93434;-71
2022/01/25 00:49:55;;;;;;;65.95;40.30;;;;;;;;;;5038095;28;92406;-71
2022/01/25 00:53:54;;;;;;;62.45;40.20;;;;;;;;;;5040744;28;93487;-71
2022/01/25 00:55:11;;;;;;;60.50;38.20;;;;;;;;;;5037540;27;92369;-71
2022/01/25 00:57:39;;;;;;;68.53;39.70;;;;;;;;;;5038637;28;93618;-71
2022/01/25 01:00:07;;;;;;;63.78;39.40;;;;;;;;;;5038062;28;93916;-71
2022/01/25 01:02:33;;;;;;;62.05;40.22;;;;;;;;;;5037981;28;92366;-71
2022/01/25 01:05:00;;;;;;;61.30;39.50;;;;;;;;;;5036182;28;94864;-71
2022/01/25 01:07:26;;;;;;;62.60;39.70;;;;;;;;;;5037729;28;93649;-70
2022/01/25 01:09:55;;;;;;;67.50;39.15;;;;;;;;;;5037865;28;92220;-71
2022/01/25 01:13:03;;;;;;;63.92;38.92;;;;;;;;;;5037852;28;92868;-71
2022/01/25 01:15:29;;;;;;;62.55;38.67;;;;;;;;;;5040294;28;93374;-71
2022/01/25 01:32:13;;;;;;;65.13;40.10;;;;;;;;;;5001692;28;94866;-71
2022/01/25 01:35:10;;;;;;;64.82;38.80;;;;;;;;;;5037184;28;95117;-71
2022/01/25 01:45:52;;;;;;;66.35;39.55;;;;;;;;;;5037533;28;92379;-71
2022/01/25 01:48:30;;;;;;;62.47;37.92;;;;;;;;;;5037142;28;93450;-71
2022/01/25 01:51:03;;;;;;;63.72;38.33;;;;;;;;;;5037127;28;93309;-71
2022/01/25 01:53:30;;;;;;;70.45;39.28;;;;;;;;;;5037188;28;92287;-71
2022/01/25 01:55:57;;;;;;;67.03;39.63;;;;;;;;;;5037069;28;93456;-71
2022/01/25 01:58:24;;;;;;;63.33;38.75;;;;;;;;;;5017248;28;96179;-71
2022/01/25 02:00:51;;;;;;;62.78;37.45;;;;;;;;;;5037092;28;92512;-71
2022/01/25 02:03:18;;;;;;;62.80;38.03;;;;;;;;;;5029369;27;93432;-71
2022/01/25 02:05:45;;;;;;;69.85;39.08;;;;;;;;;;5015931;28;92727;-70
2022/01/25 02:08:11;;;;;;;66.05;39.15;;;;;;;;;;5016946;28;93440;-71
2022/01/25 02:10:38;;;;;;;61.95;38.30;;;;;;;;;;5016378;28;93655;-71
2022/01/25 02:13:05;;;;;;;63.60;39.78;;;;;;;;;;5016752;28;92278;-71
2022/01/25 02:15:32;;;;;;;68.65;40.70;;;;;;;;;;5017291;28;93565;-72
2022/01/25 02:23:28;;;;;;;63.95;39.20;;;;;;;;;;5014842;28;94620;-71
2022/01/25 02:25:55;;;;;;;65.63;39.65;;;;;;;;;;5019573;28;93625;-71
2022/01/25 02:28:26;;;;;;;62.72;38.33;;;;;;;;;;5016085;28;93334;-71
2022/01/25 02:30:53;;;;;;;67.17;38.40;;;;;;;;;;4998707;28;93378;-70
2022/01/25 02:33:19;;;;;;;65.85;39.78;;;;;;;;;;5016752;28;92193;-71
2022/01/25 02:35:46;;;;;;;66.32;39.30;;;;;;;;;;5016648;28;92873;-70
2022/01/25 02:38:14;;;;;;;65.35;39.72;;;;;;;;;;5014924;28;93620;-71
2022/01/25 02:40:40;;;;;;;68.65;38.15;;;;;;;;;;5013858;28;92317;-71
2022/01/25 02:43:07;;;;;;;62.97;37.80;;;;;;;;;;5012887;28;92706;-72
2022/01/25 02:45:35;;;;;;;62.47;39.25;;;;;;;;;;5016008;28;93226;-70
2022/01/25 02:50:48;;;;;;;65.72;38.75;;;;;;;;;;5013591;28;93634;-71
2022/01/25 02:53:15;;;;;;;68.00;40.58;;;;;;;;;;5015640;28;93483;-72
2022/01/25 02:55:41;;;;;;;70.35;39.15;;;;;;;;;;4998345;28;93001;-70
2022/01/25 02:58:09;;;;;;;68.72;40.40;;;;;;;;;;5016004;28;93039;-72
2022/01/25 03:00:35;;;;;;;63.53;38.90;;;;;;;;;;5015952;28;92267;-72
2022/01/25 03:03:02;;;;;;;71.75;41.17;;;;;;;;;;5015993;28;93390;-72
2022/01/25 03:05:29;;;;;;;67.78;40.63;;;;;;;;;;5016222;28;91940;-71
2022/01/25 03:07:57;;;;;;;67.43;39.85;;;;;;;;;;5018560;28;92650;-73
2022/01/25 03:10:32;;;;;;;66.78;39.30;;;;;;;;;;5015691;28;93659;-72
2022/01/25 03:12:59;;;;;;;71.53;39.90;;;;;;;;;;5014206;28;94693;-72
2022/01/25 03:15:41;;;;;;;68.28;39.42;;;;;;;;;;5015879;28;95909;-72
2022/01/25 03:18:14;;;;;;;63.67;39.05;;;;;;;;;;5018380;28;93502;-72
2022/01/25 03:20:58;;;;;;;68.43;40.03;;;;;;;;;;5019165;28;93426;-72
2022/01/25 03:23:24;;;;;;;71.55;40.05;;;;;;;;;;5019404;28;93095;-71
2022/01/25 03:25:51;;;;;;;73.38;39.53;;;;;;;;;;5018715;28;93075;-72
2022/01/25 03:28:19;;;;;;;70.97;40.25;;;;;;;;;;5019147;28;92232;-72
2022/01/25 03:30:46;;;;;;;63.72;37.50;;;;;;;;;;5022514;28;93460;-72
2022/01/25 03:33:13;;;;;;;66.78;38.53;;;;;;;;;;5018847;28;93180;-72
2022/01/25 03:35:40;;;;;;;64.82;39.75;;;;;;;;;;5019375;28;92537;-71
2022/01/25 03:38:07;;;;;;;69.05;39.72;;;;;;;;;;5017217;28;95845;-71
2022/01/25 03:40:33;;;;;;;67.03;38.00;;;;;;;;;;5019223;28;92193;-71
2022/01/25 03:43:05;;;;;;;70.47;39.03;;;;;;;;;;5019148;28;92945;-72
2022/01/25 03:45:34;;;;;;;67.15;39.58;;;;;;;;;;5018693;28;93297;-72
2022/01/25 03:49:49;;;;;;;68.57;40.92;;;;;;;;;;5018785;28;94179;-72
2022/01/25 03:50:49;;;;;;;71.70;39.42;;;;;;;;;;5018366;28;92766;-72
2022/01/25 03:53:16;;;;;;;64.03;39.15;;;;;;;;;;5022009;28;92666;-72
2022/01/25 03:55:43;;;;;;;63.92;38.85;;;;;;;;;;5019407;28;93562;-71
2022/01/25 03:58:11;;;;;;;67.03;39.17;;;;;;;;;;5018430;28;93663;-71
2022/01/25 04:00:38;;;;;;;66.45;39.35;;;;;;;;;;5001516;28;92411;-71
2022/01/25 04:03:12;;;;;;;72.03;41.88;;;;;;;;;;5017272;28;94793;-71
2022/01/25 04:08:08;;;;;;;72.60;39.60;;;;;;;;;;5018713;28;92383;-71
2022/01/25 04:10:34;;;;;;;74.75;38.90;;;;;;;;;;5018562;28;92529;-71
2022/01/25 04:13:00;;;;;;;74.93;42.28;;;;;;;;;;5018667;28;93326;-71
2022/01/25 04:15:27;;;;;;;72.30;40.72;;;;;;;;;;5022002;28;92269;-71
2022/01/25 04:18:13;;;;;;;72.95;41.72;;;;;;;;;;5018552;28;93765;-71
2022/01/25 04:20:40;;;;;;;79.43;41.40;;;;;;;;;;5019138;28;91634;-71
2022/01/25 04:25:52;;;;;;;69.93;39.28;;;;;;;;;;5018289;28;93467;-71
2022/01/25 04:28:18;;;;;;;72.10;39.53;;;;;;;;;;5016211;28;94676;-71
2022/01/25 04:30:45;;;;;;;66.13;39.05;;;;;;;;;;5018314;28;96037;-71
2022/01/25 04:33:20;;;;;;;67.40;40.13;;;;;;;;;;5018153;28;93707;-72
2022/01/25 04:49:33;;;;;;;74.50;38.97;;;;;;;;;;5017775;28;92303;-71
2022/01/25 04:52:10;;;;;;;80.75;41.42;;;;;;;;;;4999917;28;94446;-71
2022/01/25 04:54:52;;;;;;;71.18;40.95;;;;;;;;;;5015972;28;96417;-71
2022/01/25 05:00:01;;;;;;;70.82;40.30;;;;;;;;;;5020273;28;93723;-71
2022/01/25 05:03:09;;;;;;;76.00;40.83;;;;;;;;;;5041092;28;93602;-72
2022/01/25 05:05:31;;;;;;;72.47;38.97;;;;;;;;;;5033992;28;94359;-71
2022/01/25 05:08:05;;;;;;;72.13;39.03;;;;;;;;;;5037730;28;93559;-71
2022/01/25 05:10:36;;;;;;;72.10;41.15;;;;;;;;;;5037866;28;92119;-71
2022/01/25 05:13:35;;;;;;;74.78;41.70;;;;;;;;;;5038346;28;93593;-71
2022/01/25 05:16:08;;;;;;;67.57;39.35;;;;;;;;;;5037421;28;95357;-72
2022/01/25 05:18:42;;;;;;;75.30;40.92;;;;;;;;;;5037686;28;92395;-72
2022/01/25 05:23:53;;;;;;;78.25;42.05;;;;;;;;;;5040537;28;93061;-72
2022/01/25 05:26:20;;;;;;;78.07;42.58;;;;;;;;;;5037719;28;93352;-72
2022/01/25 05:28:46;;;;;;;76.57;42.42;;;;;;;;;;5037354;28;93709;-72
2022/01/25 05:31:13;;;;;;;76.95;43.33;;;;;;;;;;5037599;28;92315;-72
2022/01/25 05:33:39;;;;;;;82.15;43.45;;;;;;;;;;5037487;28;93904;-72
2022/01/25 05:36:05;;;;;;;78.07;42.42;;;;;;;;;;5036992;28;93812;-72
2022/01/25 05:38:32;;;;;;;80.78;42.20;;;;;;;;;;5037883;28;91567;-71
2022/01/25 05:41:01;;;;;;;80.93;43.50;;;;;;;;;;5036674;27;92284;-71
2022/01/25 05:46:18;;;;;;;78.03;43.53;;;;;;;;;;5038541;28;94666;-71
2022/01/25 05:48:47;;;;;;;78.93;42.63;;;;;;;;;;5001143;28;93195;-71
2022/01/25 05:51:13;;;;;;;82.57;43.45;;;;;;;;;;5036780;28;92294;-71
2022/01/25 05:53:42;;;;;;;82.63;43.58;;;;;;;;;;5037211;28;92515;-71
2022/01/25 05:56:09;;;;;;;79.88;44.60;;;;;;;;;;5036955;28;92982;-71
2022/01/25 05:58:35;;;;;;;77.40;42.40;;;;;;;;;;5037117;28;92468;-71
2022/01/25 06:01:01;;;;;;;82.97;44.65;;;;;;;;;;5036846;28;93896;-72
2022/01/25 06:03:28;;;;;;;86.88;46.28;;;;;;;;;;5019717;28;91852;-71
2022/01/25 06:05:54;;;;;;;86.18;45.00;;;;;;;;;;5036812;28;92305;-71
2022/01/25 06:08:21;;;;;;;91.32;45.75;;;;;;;;;;5039770;28;93316;-71
2022/01/25 06:10:47;;;;;;;85.25;45.85;;;;;;;;;;5035040;28;94707;-71
2022/01/25 06:13:13;;;;;;;88.47;46.65;;;;;;;;;;5036843;28;94931;-71
2022/01/25 06:15:40;;;;;;;86.28;46.08;;;;;;;;;;5036556;28;93814;-71
2022/01/25 06:18:06;;;;;;;93.30;49.35;;;;;;;;;;5036467;28;92311;-71
2022/01/25 06:20:33;;;;;;;88.32;46.80;;;;;;;;;;5036586;28;93404;-71
2022/01/25 06:22:59;;;;;;;88.35;44.92;;;;;;;;;;5036758;28;94123;-71
2022/01/25 06:25:26;;;;;;;83.85;45.78;;;;;;;;;;5036502;28;92451;-71
2022/01/25 06:27:52;;;;;;;84.18;45.40;;;;;;;;;;5037079;28;93345;-71
2022/01/25 06:30:19;;;;;;;82.60;44.00;;;;;;;;;;5039224;28;93653;-72
2022/01/25 06:32:46;;;;;;;92.15;47.28;;;;;;;;;;5036356;28;93517;-71
2022/01/25 06:35:14;;;;;;;89.05;46.20;;;;;;;;;;5034750;28;95789;-71
2022/01/25 06:37:40;;;;;;;87.20;46.30;;;;;;;;;;5036733;28;92246;-71
2022/01/25 06:40:07;;;;;;;86.45;46.33;;;;;;;;;;5036337;28;92502;-71
2022/01/25 06:42:35;;;;;;;93.65;47.38;;;;;;;;;;5036292;28;93719;-71
2022/01/25 06:45:11;;;;;;;89.43;46.95;;;;;;;;;;5036071;28;93276;-72
2022/01/25 06:47:37;;;;;;;88.28;45.28;;;;;;;;;;5036441;28;92231;-71
2022/01/25 06:50:04;;;;;;;88.38;46.55;;;;;;;;;;5035997;28;93629;-71
2022/01/25 06:52:30;;;;;;;92.32;47.47;;;;;;;;;;5039702;27;91544;-71
2022/01/25 06:54:57;;;;;;;85.03;44.88;;;;;;;;;;5036292;28;94091;-71
2022/01/25 06:57:23;;;;;;;86.93;45.35;;;;;;;;;;5036249;28;92334;-72
2022/01/25 06:59:49;;;;;;;87.82;45.97;;;;;;;;;;5034522;28;94737;-71
2022/01/25 07:02:16;;;;;;;87.10;47.25;;;;;;;;;;5035768;28;93703;-71
2022/01/25 07:04:42;;;;;;;93.53;46.20;;;;;;;;;;5036417;28;92627;-71
2022/01/25 07:07:08;;;;;;;89.38;46.55;;;;;;;;;;5035838;28;93953;-71
2022/01/25 07:09:35;;;;;;;91.22;46.10;;;;;;;;;;5036341;28;93412;-71
2022/01/25 07:12:03;;;;;;;85.18;45.83;;;;;;;;;;5036059;28;92481;-71
2022/01/25 07:14:30;;;;;;;94.22;47.22;;;;;;;;;;5039345;28;93426;-71
2022/01/25 07:16:56;;;;;;;92.72;46.13;;;;;;;;;;5036893;28;91473;-71
2022/01/25 07:19:24;;;;;;;86.65;46.17;;;;;;;;;;5040130;28;92914;-71
2022/01/25 07:21:50;;;;;;;93.88;47.97;;;;;;;;;;5041028;28;93499;-71
2022/01/25 07:24:17;;;;;;;87.63;46.38;;;;;;;;;;5036947;28;94659;-71
2022/01/25 07:26:44;;;;;;;91.15;45.35;;;;;;;;;;5035430;28;95794;-72
2022/01/25 07:29:10;;;;;;;90.35;45.78;;;;;;;;;;5035746;28;93741;-72
2022/01/25 07:31:36;;;;;;;91.05;46.53;;;;;;;;;;5035763;28;92371;-72
2022/01/25 07:34:12;;;;;;;85.78;44.88;;;;;;;;;;5038974;28;92823;-72
2022/01/25 07:36:42;;;;;;;93.22;45.53;;;;;;;;;;5035693;28;92417;-72
2022/01/25 07:39:13;;;;;;;95.20;45.80;;;;;;;;;;5034977;28;94647;-73
2022/01/25 07:41:47;;;;;;;89.82;46.42;;;;;;;;;;5036209;28;92433;-73
2022/01/25 07:44:26;;;;;;;85.28;45.05;;;;;;;;;;5017470;28;92306;-70
2022/01/25 07:46:53;;;;;;;90.47;45.92;;;;;;;;;;5035447;28;92939;-71
2022/01/25 07:49:33;;;;;;;90.38;44.83;;;;;;;;;;5028425;28;96194;-73
2022/01/25 07:52:04;;;;;;;86.47;43.05;;;;;;;;;;5035637;28;92299;-71
2022/01/25 07:54:31;;;;;;;83.15;42.92;;;;;;;;;;5035557;28;93248;-71
2022/01/25 07:56:57;;;;;;;90.22;44.97;;;;;;;;;;5020681;28;93589;-71
2022/01/25 07:59:24;;;;;;;91.20;45.10;;;;;;;;;;5035436;28;93372;-71
2022/01/25 08:01:51;;;;;;;86.22;43.45;;;;;;;;;;5017646;28;93546;-71
2022/01/25 08:04:25;;;;;;;87.00;42.67;;;;;;;;;;5035108;27;92507;-71
2022/01/25 08:06:54;;;;;;;87.78;44.55;;;;;;;;;;5038375;28;93322;-71
2022/01/25 08:09:25;;;;;;;90.35;42.67;;;;;;;;;;5038855;28;92960;-70
2022/01/25 08:11:51;;;;;;;84.93;43.80;;;;;;;;;;5038991;28;92312;-71
2022/01/25 08:14:21;;;;;;;88.65;44.85;;;;;;;;;;5037297;28;94736;-70
2022/01/25 08:16:51;;;;;;;92.53;45.35;;;;;;;;;;5038266;28;93130;-70
2022/01/25 08:19:18;;;;;;;91.75;45.30;;;;;;;;;;5041818;28;92376;-70
2022/01/25 08:21:48;;;;;;;90.55;45.15;;;;;;;;;;5038181;28;93827;-71
2022/01/25 08:24:19;;;;;;;95.45;45.72;;;;;;;;;;5037710;28;92362;-70
2022/01/25 08:27:00;;;;;;;90.72;46.47;;;;;;;;;;5022760;28;95196;-69
2022/01/25 08:29:51;;;;;;;96.70;46.80;;;;;;;;;;5031694;28;93643;-70
2022/01/25 08:32:51;;;;;;;90.50;44.45;;;;;;;;;;5023083;28;91676;-73
2022/01/25 08:35:24;;;;;;;90.35;44.70;;;;;;;;;;5034757;28;92769;-70
2022/01/25 08:38:04;;;;;;;91.80;44.20;;;;;;;;;;5036018;28;93602;-70
2022/01/25 08:40:34;;;;;;;87.95;43.85;;;;;;;;;;5036750;28;94652;-71
2022/01/25 08:43:11;;;;;;;91.25;44.90;;;;;;;;;;5024955;28;97090;-71
2022/01/25 08:45:43;;;;;;;94.82;45.10;;;;;;;;;;5036664;28;92344;-71
2022/01/25 08:48:15;;;;;;;92.80;45.35;;;;;;;;;;5037913;28;94012;-71
2022/01/25 08:50:44;;;;;;;91.25;44.92;;;;;;;;;;5037970;28;93602;-72
2022/01/25 08:53:44;;;;;;;89.63;43.38;;;;;;;;;;5016792;28;92482;-71
2022/01/25 08:56:11;;;;;;;93.90;44.83;;;;;;;;;;5038266;28;92778;-72
2022/01/25 08:58:58;;;;;;;95.20;44.65;;;;;;;;;;5038135;28;93512;-71
2022/01/25 09:01:25;;;;;;;94.00;46.65;;;;;;;;;;5038106;28;92337;-71
2022/01/25 09:03:54;;;;;;;95.68;44.53;;;;;;;;;;5037937;28;93599;-72
2022/01/25 09:06:21;;;;;;;94.40;46.10;;;;;;;;;;5039384;28;95459;-71
2022/01/25 09:08:48;;;;;;;91.88;45.45;;;;;;;;;;5037868;28;95931;-72
2022/01/25 09:11:15;;;;;;;91.60;43.95;;;;;;;;;;5020304;27;93561;-72
2022/01/25 09:13:41;;;;;;;88.75;42.72;;;;;;;;;;5058231;27;92604;-71
2022/01/25 09:16:08;;;;;;;92.15;44.28;;;;;;;;;;5058023;27;93822;-71
2022/01/25 09:18:35;;;;;;;86.78;44.85;;;;;;;;;;5057826;27;93615;-71
2022/01/25 09:21:01;;;;;;;91.30;44.25;;;;;;;;;;5057794;27;92237;-71
2022/01/25 09:23:28;;;;;;;84.90;43.08;;;;;;;;;;5039994;27;96537;-71
2022/01/25 09:25:55;;;;;;;93.25;45.28;;;;;;;;;;5057884;27;93573;-72
2022/01/25 09:28:21;;;;;;;95.72;45.33;;;;;;;;;;5060816;27;92260;-71
2022/01/25 09:30:47;;;;;;;88.22;43.13;;;;;;;;;;5056021;27;96033;-72
2022/01/25 09:33:19;;;;;;;92.95;44.20;;;;;;;;;;5057969;27;92333;-72
2022/01/25 09:35:47;;;;;;;87.15;43.17;;;;;;;;;;5057539;27;93463;-74
2022/01/25 09:38:13;;;;;;;94.85;45.70;;;;;;;;;;5039871;27;93238;-72
2022/01/25 09:40:40;;;;;;;92.18;44.15;;;;;;;;;;5057568;27;92507;-73
2022/01/25 09:43:07;;;;;;;91.38;43.28;;;;;;;;;;5057564;27;92787;-73
2022/01/25 09:45:34;;;;;;;101.50;44.22;;;;;;;;;;5057566;27;93650;-73
2022/01/25 09:48:00;;;;;;;91.40;44.05;;;;;;;;;;5061317;27;91490;-72
2022/01/25 09:50:33;;;;;;;90.20;43.17;;;;;;;;;;5057028;27;93680;-72
2022/01/25 09:53:00;;;;;;;90.00;45.28;;;;;;;;;;5057370;27;92358;-71
2022/01/25 09:55:29;;;;;;;91.53;42.63;;;;;;;;;;5055888;27;94648;-72
2022/01/25 09:57:56;;;;;;;86.68;42.35;;;;;;;;;;5057370;27;93796;-71
2022/01/25 10:00:24;;;;;;;91.05;44.35;;;;;;;;;;5057490;27;92259;-74
2022/01/25 10:05:34;;;;;;;90.85;43.00;;;;;;;;;;5056927;27;93633;-72
2022/01/25 10:08:02;;;;;;;89.20;42.35;;;;;;;;;;5057261;27;92278;-71
2022/01/25 10:10:30;;;;;;;93.57;45.45;;;;;;;;;;5059917;27;93643;-70
2022/01/25 10:13:07;;;;;;;90.70;43.67;;;;;;;;;;5057766;27;92145;-71
2022/01/25 10:15:35;;;;;;;86.38;43.17;;;;;;;;;;5056936;27;92916;-71
2022/01/25 10:18:13;;;;;;;86.63;42.35;;;;;;;;;;5057190;27;93038;-72
2022/01/25 10:20:41;;;;;;;90.43;42.50;;;;;;;;;;5055420;27;94700;-72
2022/01/25 10:23:09;;;;;;;93.95;42.63;;;;;;;;;;5056941;27;95643;-70
2022/01/25 10:25:37;;;;;;;90.28;42.25;;;;;;;;;;5057010;27;92960;-76
2022/01/25 10:28:10;;;;;;;89.90;44.28;;;;;;;;;;5056275;27;92320;-73
2022/01/25 10:30:44;;;;;;;89.93;44.58;;;;;;;;;;5057064;27;94026;-74
2022/01/25 10:33:21;;;;;;;90.68;43.88;;;;;;;;;;5041589;27;94488;-77
2022/01/25 10:35:48;;;;;;;91.60;44.45;;;;;;;;;;5056889;27;93448;-72
2022/01/25 10:38:19;;;;;;;95.57;45.08;;;;;;;;;;5039118;27;93150;-73
2022/01/25 10:40:51;;;;;;;87.35;42.35;;;;;;;;;;5035929;28;92375;-72
2022/01/25 10:43:20;;;;;;;88.38;42.33;;;;;;;;;;5036470;28;93620;-72
2022/01/25 10:46:02;;;;;;;86.20;42.63;;;;;;;;;;5034670;28;96019;-71
2022/01/25 10:48:29;;;;;;;88.75;41.83;;;;;;;;;;5036608;28;92405;-73
2022/01/25 10:51:03;;;;;;;86.53;41.70;;;;;;;;;;5035933;28;93939;-72
2022/01/25 10:53:29;;;;;;;92.25;43.60;;;;;;;;;;5036405;28;93521;-73
2022/01/25 10:55:57;;;;;;;87.00;41.63;;;;;;;;;;5039097;28;92271;-74
2022/01/25 10:58:24;;;;;;;91.32;43.60;;;;;;;;;;5036147;28;93057;-71
2022/01/25 11:00:51;;;;;;;93.38;43.80;;;;;;;;;;5036158;28;92358;-74
2022/01/25 11:03:27;;;;;;;88.28;41.55;;;;;;;;;;5036825;28;93303;-71
2022/01/25 11:05:54;;;;;;;87.13;43.72;;;;;;;;;;5035500;28;93690;-74
2022/01/25 11:08:22;;;;;;;90.15;41.30;;;;;;;;;;5036185;28;92352;-72
2022/01/25 11:11:00;;;;;;;91.25;42.50;;;;;;;;;;5034600;28;95738;-71
2022/01/25 11:15:59;;;;;;;89.80;42.85;;;;;;;;;;5036215;28;92299;-75
2022/01/25 11:18:30;;;;;;;92.85;41.78;;;;;;;;;;5038949;28;92791;-72
2022/01/25 11:21:00;;;;;;;90.50;41.95;;;;;;;;;;5018057;28;92388;-74
2022/01/25 11:23:27;;;;;;;87.50;41.13;;;;;;;;;;5035894;28;93457;-74
2022/01/25 11:25:55;;;;;;;86.10;42.70;;;;;;;;;;5035794;28;93637;-75
2022/01/25 11:28:22;;;;;;;86.40;41.10;;;;;;;;;;5036597;28;91591;-72
2022/01/25 11:30:49;;;;;;;86.00;41.22;;;;;;;;;;5035445;28;92309;-74
2022/01/25 11:33:18;;;;;;;86.72;40.13;;;;;;;;;;5035605;28;93752;-70
2022/01/25 11:35:45;;;;;;;85.40;41.08;;;;;;;;;;5034346;28;94681;-71
2022/01/25 11:38:11;;;;;;;92.70;41.17;;;;;;;;;;5038852;28;95962;-72
2022/01/25 11:40:40;;;;;;;90.55;41.53;;;;;;;;;;5039124;28;92165;-72
2022/01/25 11:43:11;;;;;;;78.43;39.97;;;;;;;;;;5039524;28;92998;-70
2022/01/25 11:45:39;;;;;;;90.28;41.67;;;;;;;;;;5021691;28;93210;-70
2022/01/25 11:48:06;;;;;;;88.72;39.50;;;;;;;;;;5039251;28;92197;-69
2022/01/25 11:50:34;;;;;;;81.30;38.88;;;;;;;;;;5038668;28;93512;-70
2022/01/25 11:53:07;;;;;;;86.82;41.78;;;;;;;;;;5039330;28;92709;-70
2022/01/25 11:55:47;;;;;;;85.47;41.53;;;;;;;;;;5039131;28;92180;-69
2022/01/25 11:58:15;;;;;;;85.47;40.35;;;;;;;;;;5038931;28;93605;-70
2022/01/25 12:00:46;;;;;;;86.68;40.20;;;;;;;;;;5040301;28;95560;-73
2022/01/25 12:03:20;;;;;;;86.28;39.90;;;;;;;;;;5039195;28;95614;-70
2022/01/25 12:05:56;;;;;;;74.75;35.20;;;;;;;;;;5038880;28;93631;-72
2022/01/25 12:08:40;;;;;;;84.00;39.30;;;;;;;;;;5038519;28;92259;-74
2022/01/25 12:11:30;;;;;;;86.03;39.80;;;;;;;;;;5038908;28;93502;-75
2022/01/25 12:14:18;;;;;;;91.07;39.88;;;;;;;;;;5020939;28;93636;-74
2022/01/25 12:16:46;;;;;;;85.38;39.30;;;;;;;;;;5038327;28;92287;-73
2022/01/25 12:19:14;;;;;;;83.45;39.38;;;;;;;;;;5039058;28;93692;-72
2022/01/25 12:24:20;;;;;;;81.57;38.45;;;;;;;;;;5041801;28;92231;-72
2022/01/25 12:26:59;;;;;;;88.97;39.72;;;;;;;;;;5036532;28;95837;-72
2022/01/25 12:29:37;;;;;;;78.30;38.15;;;;;;;;;;5038665;28;92275;-75
2022/01/25 12:32:15;;;;;;;86.07;39.90;;;;;;;;;;5038502;28;92911;-72
2022/01/25 12:34:55;;;;;;;82.07;38.40;;;;;;;;;;5038580;28;93991;-72
2022/01/25 12:37:54;;;;;;;85.88;40.08;;;;;;;;;;5038575;28;92172;-71
2022/01/25 12:40:24;;;;;;;82.45;37.58;;;;;;;;;;5038288;28;93382;-73
2022/01/25 12:42:51;;;;;;;80.30;38.22;;;;;;;;;;5038319;28;93038;-73
2022/01/25 12:45:18;;;;;;;82.25;39.17;;;;;;;;;;5038933;28;91589;-73
2022/01/25 12:47:51;;;;;;;84.15;40.38;;;;;;;;;;5041390;28;92305;-73
2022/01/25 12:50:18;;;;;;;81.68;38.03;;;;;;;;;;5037162;27;93351;-73
2022/01/25 12:52:45;;;;;;;86.60;39.53;;;;;;;;;;5036772;28;94835;-73
2022/01/25 12:55:12;;;;;;;83.60;40.65;;;;;;;;;;5038266;28;93665;-73
2022/01/25 12:57:48;;;;;;;79.07;38.70;;;;;;;;;;5038068;28;92377;-73
2022/01/25 13:00:15;;;;;;;79.32;37.88;;;;;;;;;;5037943;28;93419;-73
2022/01/25 13:02:42;;;;;;;90.65;41.33;;;;;;;;;;5037885;28;93305;-73
2022/01/25 13:05:19;;;;;;;82.95;40.45;;;;;;;;;;5038044;28;92250;-73
2022/01/25 13:07:45;;;;;;;82.57;39.03;;;;;;;;;;5037943;28;93826;-73
2022/01/25 13:10:25;;;;;;;88.13;40.60;;;;;;;;;;5041406;28;92992;-73
2022/01/25 13:12:57;;;;;;;81.75;39.47;;;;;;;;;;5037953;28;92692;-73
2022/01/25 13:18:11;;;;;;;84.05;39.22;;;;;;;;;;5036104;28;94704;-74
2022/01/25 13:20:39;;;;;;;84.88;40.28;;;;;;;;;;5037651;28;95364;-74
2022/01/25 13:23:06;;;;;;;86.47;40.30;;;;;;;;;;5037685;28;93572;-74
2022/01/25 13:30:38;;;;;;;82.28;38.03;;;;;;;;;;5037656;28;93989;-73
2022/01/25 13:31:18;;;;;;;85.78;39.65;;;;;;;;;;5033639;28;93609;-73
2022/01/25 13:33:45;;;;;;;81.60;37.75;;;;;;;;;;5040948;28;92353;-74
2022/01/25 13:36:15;;;;;;;85.18;38.92;;;;;;;;;;5037636;28;92885;-74
2022/01/25 13:38:42;;;;;;;86.07;38.40;;;;;;;;;;5037707;28;92267;-73
2022/01/25 13:46:24;;;;;;;82.85;37.28;;;;;;;;;;5037204;28;92418;-74
2022/01/25 13:48:52;;;;;;;83.00;37.67;;;;;;;;;;5035915;28;93079;-75
2022/01/25 13:51:20;;;;;;;83.63;38.08;;;;;;;;;;5034773;28;93412;-75
2022/01/25 13:53:52;;;;;;;82.38;38.80;;;;;;;;;;5040347;28;92292;-75
2022/01/25 13:56:20;;;;;;;84.72;39.03;;;;;;;;;;5036696;28;94735;-73
2022/01/25 13:58:48;;;;;;;81.25;38.33;;;;;;;;;;5037340;28;92326;-74
2022/01/25 14:01:16;;;;;;;81.60;37.97;;;;;;;;;;5036391;27;92665;-73
2022/01/25 14:03:45;;;;;;;84.20;38.47;;;;;;;;;;5037174;28;93642;-73
2022/01/25 14:06:22;;;;;;;82.10;38.40;;;;;;;;;;5037046;28;92192;-70
2022/01/25 14:08:49;;;;;;;80.90;39.47;;;;;;;;;;5035410;28;94699;-69
2022/01/25 14:11:16;;;;;;;84.30;38.78;;;;;;;;;;5035447;27;93940;-72
2022/01/25 14:24:50;;;;;;;85.32;38.10;;;;;;;;;;5007859;28;93970;-75
2022/01/25 14:27:21;;;;;;;87.80;41.42;;;;;;;;;;5037202;28;91721;-77
2022/01/25 14:29:50;;;;;;;82.10;38.15;;;;;;;;;;5036667;28;93064;-80
2022/01/25 14:32:27;;;;;;;79.47;37.97;;;;;;;;;;4997812;28;94829;-77
2022/01/25 14:35:05;;;;;;;79.17;39.20;;;;;;;;;;5014886;28;94808;-77
2022/01/25 14:37:31;;;;;;;78.07;38.05;;;;;;;;;;5016479;28;95898;-75
2022/01/25 14:40:06;;;;;;;83.75;38.47;;;;;;;;;;5019539;28;93925;-77
2022/01/25 14:42:33;;;;;;;82.78;39.80;;;;;;;;;;5015528;28;93544;-76
2022/01/25 14:45:00;;;;;;;87.05;39.67;;;;;;;;;;5016148;28;93201;-75
2022/01/25 14:47:35;;;;;;;79.68;38.20;;;;;;;;;;5016659;28;92307;-76
2022/01/25 14:50:01;;;;;;;86.85;39.05;;;;;;;;;;5016109;28;93537;-75
2022/01/25 14:52:28;;;;;;;82.63;38.90;;;;;;;;;;5016586;28;93064;-74
2022/01/25 14:54:54;;;;;;;85.30;39.33;;;;;;;;;;5016416;28;92337;-75
2022/01/25 14:57:26;;;;;;;78.63;38.38;;;;;;;;;;5014256;28;94792;-74
2022/01/25 15:00:00;;;;;;;84.50;40.00;;;;;;;;;;5014583;28;95583;-74
2022/01/25 15:02:26;;;;;;;87.70;39.95;;;;;;;;;;5019059;28;92293;-76
2022/01/25 15:04:55;;;;;;;85.38;39.60;;;;;;;;;;5016002;28;93547;-76
2022/01/25 15:07:26;;;;;;;74.97;36.45;;;;;;;;;;5016245;28;93514;-77
2022/01/25 15:10:00;;;;;;;81.13;39.47;;;;;;;;;;5015726;28;92773;-76
2022/01/25 15:12:36;;;;;;;87.57;38.67;;;;;;;;;;5016201;28;93661;-74
2022/01/25 15:15:08;;;;;;;82.32;37.00;;;;;;;;;;5019729;28;92337;-76
2022/01/25 15:17:37;;;;;;;81.07;38.85;;;;;;;;;;5019951;28;93315;-79
2022/01/25 15:20:05;;;;;;;86.95;39.08;;;;;;;;;;5019231;28;94080;-76
2022/01/25 15:22:32;;;;;;;82.63;38.25;;;;;;;;;;4984727;28;92656;-80
2022/01/25 15:25:30;;;;;;;87.15;39.63;;;;;;;;;;5020715;28;94644;-78
2022/01/25 15:27:57;;;;;;;87.00;38.80;;;;;;;;;;5021529;27;92360;-75
2022/01/25 15:30:29;;;;;;;85.43;40.05;;;;;;;;;;5039794;28;92772;-78
2022/01/25 15:33:11;;;;;;;87.70;39.40;;;;;;;;;;4999630;28;96937;-78
2022/01/25 15:35:38;;;;;;;83.97;38.45;;;;;;;;;;5039713;28;92315;-77
2022/01/25 15:38:05;;;;;;;84.50;39.60;;;;;;;;;;5039572;28;92844;-77
2022/01/25 15:40:33;;;;;;;85.18;40.55;;;;;;;;;;5021819;28;93117;-77
2022/01/25 15:43:21;;;;;;;87.03;40.47;;;;;;;;;;5005311;28;92626;-81
2022/01/25 15:46:01;;;;;;;87.60;38.38;;;;;;;;;;5039336;28;92186;-79
2022/01/25 15:48:36;;;;;;;86.57;37.75;;;;;;;;;;5009080;28;94383;-76
2022/01/25 15:51:03;;;;;;;84.57;37.97;;;;;;;;;;5037679;28;94747;-74
2022/01/25 15:53:29;;;;;;;87.43;39.67;;;;;;;;;;5039152;28;93694;-75
2022/01/25 15:55:56;;;;;;;87.88;39.63;;;;;;;;;;5038421;28;92878;-76
2022/01/25 15:58:22;;;;;;;84.82;39.55;;;;;;;;;;5021549;28;92879;-77
2022/01/25 16:00:49;;;;;;;83.30;39.67;;;;;;;;;;5038381;28;92951;-75
2022/01/25 16:03:19;;;;;;;84.03;37.97;;;;;;;;;;5038247;28;92393;-77
2022/01/25 16:05:47;;;;;;;85.10;39.15;;;;;;;;;;5038904;28;93562;-76
2022/01/25 16:08:17;;;;;;;93.80;41.03;;;;;;;;;;5042157;28;92987;-77
2022/01/25 16:10:44;;;;;;;88.47;41.00;;;;;;;;;;5038887;28;92790;-78
2022/01/25 16:13:14;;;;;;;91.07;39.13;;;;;;;;;;5039067;28;93191;-79
2022/01/25 16:15:41;;;;;;;87.85;38.67;;;;;;;;;;5036462;28;94739;-75
2022/01/25 16:18:08;;;;;;;89.35;38.42;;;;;;;;;;5038601;28;95183;-76
2022/01/25 16:20:34;;;;;;;89.45;38.05;;;;;;;;;;5038637;28;93626;-77
2022/01/25 16:23:02;;;;;;;87.15;38.45;;;;;;;;;;5038335;28;92350;-76
2022/01/25 16:25:28;;;;;;;82.90;39.20;;;;;;;;;;5037795;27;92963;-74